sensor_id;sensor_type;location;lat;lon;timestamp;temperature;humidity
12588;DHT22;6359;51.450;7.346;2022-09-09T00:01:07;15.20;99.90
12588;DHT22;6359;51.450;7.346;2022-09-09T00:03:42;15.10;99.90
12588;DHT22;6359;51.450;7.346;2022-09-09T00:06:18;15.00;99.90
12588;DHT22;6359;51.450;7.346;2022-09-09T00:08:53;14.90;99.90
12588;DHT22;6359;51.450;7.346;2022-09-09T00:11:28;14.80;99.90
12588;DHT22;6359;51.450;7.346;2022-09-09T00:14:00;14.70;99.90
12588;DHT22;6359;51.450;7.346;2022-09-09T00:16:35;14.70;99.90
12588;DHT22;6359;51.450;7.346;2022-09-09T00:19:07;14.60;99.90
12588;DHT22;6359;51.450;7.346;2022-09-09T00:21:36;14.60;99.90
12588;DHT22;6359;51.450;7.346;2022-09-09T00:24:11;14.50;99.90
12588;DHT22;6359;51.450;7.346;2022-09-09T00:26:44;14.50;99.90
12588;DHT22;6359;51.450;7.346;2022-09-09T00:29:19;14.60;99.90
12588;DHT22;6359;51.450;7.346;2022-09-09T00:31:54;14.60;99.90
12588;DHT22;6359;51.450;7.346;2022-09-09T00:34:26;14.60;99.90
12588;DHT22;6359;51.450;7.346;2022-09-09T00:36:56;14.60;99.90
12588;DHT22;6359;51.450;7.346;2022-09-09T00:39:27;14.60;99.90
12588;DHT22;6359;51.450;7.346;2022-09-09T00:42:11;14.70;99.90
12588;DHT22;6359;51.450;7.346;2022-09-09T00:44:51;14.70;99.90
12588;DHT22;6359;51.450;7.346;2022-09-09T00:47:34;14.60;99.90
12588;DHT22;6359;51.450;7.346;2022-09-09T00:50:17;14.60;99.90
12588;DHT22;6359;51.450;7.346;2022-09-09T00:52:59;14.50;99.90
12588;DHT22;6359;51.450;7.346;2022-09-09T00:55:36;14.50;99.90
12588;DHT22;6359;51.450;7.346;2022-09-09T00:58:07;14.50;99.90
12588;DHT22;6359;51.450;7.346;2022-09-09T01:00:42;14.50;99.90
12588;DHT22;6359;51.450;7.346;2022-09-09T01:03:22;14.50;99.90
12588;DHT22;6359;51.450;7.346;2022-09-09T01:06:00;14.50;99.90
12588;DHT22;6359;51.450;7.346;2022-09-09T01:08:39;14.40;99.90
12588;DHT22;6359;51.450;7.346;2022-09-09T01:11:15;14.40;99.90
12588;DHT22;6359;51.450;7.346;2022-09-09T01:13:45;14.30;99.90
12588;DHT22;6359;51.450;7.346;2022-09-09T01:16:16;14.30;99.90
12588;DHT22;6359;51.450;7.346;2022-09-09T01:18:48;14.30;99.90
12588;DHT22;6359;51.450;7.346;2022-09-09T01:21:24;14.30;99.90
12588;DHT22;6359;51.450;7.346;2022-09-09T01:24:19;14.40;99.90
12588;DHT22;6359;51.450;7.346;2022-09-09T01:26:51;14.40;99.90
12588;DHT22;6359;51.450;7.346;2022-09-09T01:29:21;14.40;99.90
12588;DHT22;6359;51.450;7.346;2022-09-09T01:31:53;14.50;99.90
12588;DHT22;6359;51.450;7.346;2022-09-09T01:34:21;14.40;99.90
12588;DHT22;6359;51.450;7.346;2022-09-09T01:36:53;14.40;99.90
12588;DHT22;6359;51.450;7.346;2022-09-09T01:39:23;14.40;99.90
12588;DHT22;6359;51.450;7.346;2022-09-09T01:41:52;14.40;99.90
12588;DHT22;6359;51.450;7.346;2022-09-09T01:44:20;14.50;99.90
12588;DHT22;6359;51.450;7.346;2022-09-09T01:46:47;14.50;99.90
12588;DHT22;6359;51.450;7.346;2022-09-09T01:49:14;14.50;99.90
12588;DHT22;6359;51.450;7.346;2022-09-09T01:51:41;14.50;99.90
12588;DHT22;6359;51.450;7.346;2022-09-09T01:54:10;14.50;99.90
12588;DHT22;6359;51.450;7.346;2022-09-09T01:56:43;14.60;99.90
12588;DHT22;6359;51.450;7.346;2022-09-09T01:59:27;14.60;99.90
12588;DHT22;6359;51.450;7.346;2022-09-09T02:02:09;14.60;99.90
12588;DHT22;6359;51.450;7.346;2022-09-09T02:04:39;14.80;99.90
12588;DHT22;6359;51.450;7.346;2022-09-09T02:07:14;14.80;99.90
12588;DHT22;6359;51.450;7.346;2022-09-09T02:09:48;14.80;99.90
12588;DHT22;6359;51.450;7.346;2022-09-09T02:12:19;14.80;99.90
12588;DHT22;6359;51.450;7.346;2022-09-09T02:14:52;14.80;99.90
12588;DHT22;6359;51.450;7.346;2022-09-09T02:17:26;14.90;99.90
12588;DHT22;6359;51.450;7.346;2022-09-09T02:19:58;14.90;99.90
12588;DHT22;6359;51.450;7.346;2022-09-09T02:22:28;14.80;99.90
12588;DHT22;6359;51.450;7.346;2022-09-09T02:24:58;14.80;99.90
12588;DHT22;6359;51.450;7.346;2022-09-09T02:27:26;14.80;99.90
12588;DHT22;6359;51.450;7.346;2022-09-09T02:29:55;14.80;99.90
12588;DHT22;6359;51.450;7.346;2022-09-09T02:32:24;14.80;99.90
12588;DHT22;6359;51.450;7.346;2022-09-09T02:34:55;14.80;99.90
12588;DHT22;6359;51.450;7.346;2022-09-09T02:37:33;14.80;99.90
12588;DHT22;6359;51.450;7.346;2022-09-09T02:40:02;14.80;99.90
12588;DHT22;6359;51.450;7.346;2022-09-09T02:42:29;14.80;99.90
12588;DHT22;6359;51.450;7.346;2022-09-09T02:44:58;14.80;99.90
12588;DHT22;6359;51.450;7.346;2022-09-09T02:47:29;14.90;99.90
12588;DHT22;6359;51.450;7.346;2022-09-09T02:50:05;14.90;99.90
12588;DHT22;6359;51.450;7.346;2022-09-09T02:52:42;14.90;99.90
12588;DHT22;6359;51.450;7.346;2022-09-09T02:55:17;14.90;99.90
12588;DHT22;6359;51.450;7.346;2022-09-09T02:57:47;14.80;99.90
12588;DHT22;6359;51.450;7.346;2022-09-09T03:00:17;14.80;99.90
12588;DHT22;6359;51.450;7.346;2022-09-09T03:02:49;14.70;99.90
12588;DHT22;6359;51.450;7.346;2022-09-09T03:05:17;14.60;99.90
12588;DHT22;6359;51.450;7.346;2022-09-09T03:07:43;14.60;99.90
12588;DHT22;6359;51.450;7.346;2022-09-09T03:10:10;14.60;99.90
12588;DHT22;6359;51.450;7.346;2022-09-09T03:12:37;14.60;99.90
12588;DHT22;6359;51.450;7.346;2022-09-09T03:15:05;14.50;99.90
12588;DHT22;6359;51.450;7.346;2022-09-09T03:17:33;14.50;99.90
12588;DHT22;6359;51.450;7.346;2022-09-09T03:20:01;14.50;99.90
12588;DHT22;6359;51.450;7.346;2022-09-09T03:22:28;14.60;99.90
12588;DHT22;6359;51.450;7.346;2022-09-09T03:24:55;14.60;99.90
12588;DHT22;6359;51.450;7.346;2022-09-09T03:27:22;14.60;99.90
12588;DHT22;6359;51.450;7.346;2022-09-09T03:29:49;14.60;99.90
12588;DHT22;6359;51.450;7.346;2022-09-09T03:32:16;14.60;99.90
12588;DHT22;6359;51.450;7.346;2022-09-09T03:34:45;14.60;99.90
12588;DHT22;6359;51.450;7.346;2022-09-09T03:37:13;14.50;99.90
12588;DHT22;6359;51.450;7.346;2022-09-09T03:39:40;14.40;99.90
12588;DHT22;6359;51.450;7.346;2022-09-09T03:42:06;14.40;99.90
12588;DHT22;6359;51.450;7.346;2022-09-09T03:44:33;14.40;99.90
12588;DHT22;6359;51.450;7.346;2022-09-09T03:47:00;14.40;99.90
12588;DHT22;6359;51.450;7.346;2022-09-09T03:49:27;14.40;99.90
12588;DHT22;6359;51.450;7.346;2022-09-09T03:51:56;14.40;99.90
12588;DHT22;6359;51.450;7.346;2022-09-09T03:54:24;14.50;99.90
12588;DHT22;6359;51.450;7.346;2022-09-09T03:56:51;14.50;99.90
12588;DHT22;6359;51.450;7.346;2022-09-09T03:59:18;14.50;99.90
12588;DHT22;6359;51.450;7.346;2022-09-09T04:01:46;14.50;99.90
12588;DHT22;6359;51.450;7.346;2022-09-09T04:04:12;14.50;99.90
12588;DHT22;6359;51.450;7.346;2022-09-09T04:06:42;14.50;99.90
12588;DHT22;6359;51.450;7.346;2022-09-09T04:09:10;14.50;99.90
12588;DHT22;6359;51.450;7.346;2022-09-09T04:11:37;14.60;99.90
12588;DHT22;6359;51.450;7.346;2022-09-09T04:14:04;14.50;99.90
12588;DHT22;6359;51.450;7.346;2022-09-09T04:16:31;14.50;99.90
12588;DHT22;6359;51.450;7.346;2022-09-09T04:18:58;14.60;99.90
12588;DHT22;6359;51.450;7.346;2022-09-09T04:21:26;14.60;99.90
12588;DHT22;6359;51.450;7.346;2022-09-09T04:23:53;14.70;99.90
12588;DHT22;6359;51.450;7.346;2022-09-09T04:26:22;14.70;99.90
12588;DHT22;6359;51.450;7.346;2022-09-09T04:28:49;14.80;99.90
12588;DHT22;6359;51.450;7.346;2022-09-09T04:31:17;14.80;99.90
12588;DHT22;6359;51.450;7.346;2022-09-09T04:33:45;14.70;99.90
12588;DHT22;6359;51.450;7.346;2022-09-09T04:36:12;14.90;99.90
12588;DHT22;6359;51.450;7.346;2022-09-09T04:38:39;14.80;99.90
12588;DHT22;6359;51.450;7.346;2022-09-09T04:41:07;14.90;99.90
12588;DHT22;6359;51.450;7.346;2022-09-09T04:43:38;14.80;99.90
12588;DHT22;6359;51.450;7.346;2022-09-09T04:46:05;14.80;99.90
12588;DHT22;6359;51.450;7.346;2022-09-09T04:48:32;14.90;99.90
12588;DHT22;6359;51.450;7.346;2022-09-09T04:51:01;14.90;99.90
12588;DHT22;6359;51.450;7.346;2022-09-09T04:53:29;14.80;99.90
12588;DHT22;6359;51.450;7.346;2022-09-09T04:56:03;14.80;99.90
12588;DHT22;6359;51.450;7.346;2022-09-09T04:58:30;14.70;99.90
12588;DHT22;6359;51.450;7.346;2022-09-09T05:01:05;14.80;99.90
12588;DHT22;6359;51.450;7.346;2022-09-09T05:03:32;14.90;99.90
12588;DHT22;6359;51.450;7.346;2022-09-09T05:06:04;14.90;99.90
12588;DHT22;6359;51.450;7.346;2022-09-09T05:08:31;14.90;99.90
12588;DHT22;6359;51.450;7.346;2022-09-09T05:10:58;14.80;99.90
12588;DHT22;6359;51.450;7.346;2022-09-09T05:13:25;14.90;99.90
12588;DHT22;6359;51.450;7.346;2022-09-09T05:15:53;14.80;99.90
12588;DHT22;6359;51.450;7.346;2022-09-09T05:18:21;14.80;99.90
12588;DHT22;6359;51.450;7.346;2022-09-09T05:20:48;14.70;99.90
12588;DHT22;6359;51.450;7.346;2022-09-09T05:23:16;14.80;99.90
12588;DHT22;6359;51.450;7.346;2022-09-09T05:25:43;14.90;99.90
12588;DHT22;6359;51.450;7.346;2022-09-09T05:28:12;14.90;99.90
12588;DHT22;6359;51.450;7.346;2022-09-09T05:30:39;15.00;99.90
12588;DHT22;6359;51.450;7.346;2022-09-09T05:33:06;15.00;99.90
12588;DHT22;6359;51.450;7.346;2022-09-09T05:35:36;15.10;99.90
12588;DHT22;6359;51.450;7.346;2022-09-09T05:38:03;15.20;99.90
12588;DHT22;6359;51.450;7.346;2022-09-09T05:40:30;15.30;99.90
12588;DHT22;6359;51.450;7.346;2022-09-09T05:43:00;15.30;99.90
12588;DHT22;6359;51.450;7.346;2022-09-09T05:45:27;15.30;99.90
12588;DHT22;6359;51.450;7.346;2022-09-09T05:47:54;15.40;99.90
12588;DHT22;6359;51.450;7.346;2022-09-09T05:50:21;15.50;99.90
12588;DHT22;6359;51.450;7.346;2022-09-09T05:52:49;15.50;99.90
12588;DHT22;6359;51.450;7.346;2022-09-09T05:55:16;15.60;99.90
12588;DHT22;6359;51.450;7.346;2022-09-09T05:57:48;15.70;99.90
12588;DHT22;6359;51.450;7.346;2022-09-09T06:00:15;15.70;99.90
12588;DHT22;6359;51.450;7.346;2022-09-09T06:02:42;15.80;99.90
12588;DHT22;6359;51.450;7.346;2022-09-09T06:05:09;15.90;99.90
12588;DHT22;6359;51.450;7.346;2022-09-09T06:07:37;16.00;99.90
12588;DHT22;6359;51.450;7.346;2022-09-09T06:10:09;16.00;99.90
12588;DHT22;6359;51.450;7.346;2022-09-09T06:12:36;16.00;99.90
12588;DHT22;6359;51.450;7.346;2022-09-09T06:15:03;16.10;99.90
12588;DHT22;6359;51.450;7.346;2022-09-09T06:17:30;16.20;99.90
12588;DHT22;6359;51.450;7.346;2022-09-09T06:19:57;16.20;99.90
12588;DHT22;6359;51.450;7.346;2022-09-09T06:22:24;16.20;99.90
12588;DHT22;6359;51.450;7.346;2022-09-09T06:24:52;16.30;99.90
12588;DHT22;6359;51.450;7.346;2022-09-09T06:27:21;16.40;99.90
12588;DHT22;6359;51.450;7.346;2022-09-09T06:29:48;16.40;99.90
12588;DHT22;6359;51.450;7.346;2022-09-09T06:32:14;16.50;99.90
12588;DHT22;6359;51.450;7.346;2022-09-09T06:34:42;16.60;99.90
12588;DHT22;6359;51.450;7.346;2022-09-09T06:37:10;16.60;99.90
12588;DHT22;6359;51.450;7.346;2022-09-09T06:39:37;16.70;99.90
12588;DHT22;6359;51.450;7.346;2022-09-09T06:42:04;16.80;99.90
12588;DHT22;6359;51.450;7.346;2022-09-09T06:44:35;16.80;99.90
12588;DHT22;6359;51.450;7.346;2022-09-09T06:47:02;16.90;99.90
12588;DHT22;6359;51.450;7.346;2022-09-09T06:49:29;16.90;99.90
12588;DHT22;6359;51.450;7.346;2022-09-09T06:51:55;16.90;99.90
12588;DHT22;6359;51.450;7.346;2022-09-09T06:54:22;16.70;99.90
12588;DHT22;6359;51.450;7.346;2022-09-09T06:56:51;16.70;99.90
12588;DHT22;6359;51.450;7.346;2022-09-09T06:59:18;16.90;99.90
12588;DHT22;6359;51.450;7.346;2022-09-09T07:01:46;17.10;99.90
12588;DHT22;6359;51.450;7.346;2022-09-09T07:04:13;17.20;99.90
12588;DHT22;6359;51.450;7.346;2022-09-09T07:06:42;17.30;99.90
12588;DHT22;6359;51.450;7.346;2022-09-09T07:09:10;17.30;99.90
12588;DHT22;6359;51.450;7.346;2022-09-09T07:11:40;17.40;99.90
12588;DHT22;6359;51.450;7.346;2022-09-09T07:14:08;17.50;99.90
12588;DHT22;6359;51.450;7.346;2022-09-09T07:16:37;17.60;99.90
12588;DHT22;6359;51.450;7.346;2022-09-09T07:19:06;17.60;99.90
12588;DHT22;6359;51.450;7.346;2022-09-09T07:21:33;17.50;99.90
12588;DHT22;6359;51.450;7.346;2022-09-09T07:24:00;17.80;99.90
12588;DHT22;6359;51.450;7.346;2022-09-09T07:26:29;18.80;99.90
12588;DHT22;6359;51.450;7.346;2022-09-09T07:28:57;20.70;99.90
12588;DHT22;6359;51.450;7.346;2022-09-09T07:31:26;22.00;99.90
12588;DHT22;6359;51.450;7.346;2022-09-09T07:33:53;23.20;99.90
12588;DHT22;6359;51.450;7.346;2022-09-09T07:36:23;24.00;99.90
12588;DHT22;6359;51.450;7.346;2022-09-09T07:38:53;24.90;99.90
12588;DHT22;6359;51.450;7.346;2022-09-09T07:41:22;25.20;99.90
12588;DHT22;6359;51.450;7.346;2022-09-09T07:43:50;25.30;99.90
12588;DHT22;6359;51.450;7.346;2022-09-09T07:46:20;25.40;99.90
12588;DHT22;6359;51.450;7.346;2022-09-09T07:48:50;25.70;99.90
12588;DHT22;6359;51.450;7.346;2022-09-09T07:51:19;26.20;99.90
12588;DHT22;6359;51.450;7.346;2022-09-09T07:53:52;26.60;99.90
12588;DHT22;6359;51.450;7.346;2022-09-09T07:56:19;25.40;99.90
12588;DHT22;6359;51.450;7.346;2022-09-09T07:58:50;24.40;99.90
12588;DHT22;6359;51.450;7.346;2022-09-09T08:01:18;24.60;99.90
12588;DHT22;6359;51.450;7.346;2022-09-09T08:03:45;25.60;99.90
12588;DHT22;6359;51.450;7.346;2022-09-09T08:06:14;26.00;99.90
12588;DHT22;6359;51.450;7.346;2022-09-09T08:08:41;27.00;99.90
12588;DHT22;6359;51.450;7.346;2022-09-09T08:11:12;27.40;99.90
12588;DHT22;6359;51.450;7.346;2022-09-09T08:13:41;26.20;99.90
12588;DHT22;6359;51.450;7.346;2022-09-09T08:16:09;24.80;99.90
12588;DHT22;6359;51.450;7.346;2022-09-09T08:18:37;23.90;99.90
12588;DHT22;6359;51.450;7.346;2022-09-09T08:21:09;24.30;99.90
12588;DHT22;6359;51.450;7.346;2022-09-09T08:23:37;24.90;99.90
12588;DHT22;6359;51.450;7.346;2022-09-09T08:26:11;25.00;99.90
12588;DHT22;6359;51.450;7.346;2022-09-09T08:28:39;24.40;99.90
12588;DHT22;6359;51.450;7.346;2022-09-09T08:31:11;23.70;99.90
12588;DHT22;6359;51.450;7.346;2022-09-09T08:33:39;23.70;99.90
12588;DHT22;6359;51.450;7.346;2022-09-09T08:36:08;24.40;99.90
12588;DHT22;6359;51.450;7.346;2022-09-09T08:38:36;25.80;99.90
12588;DHT22;6359;51.450;7.346;2022-09-09T08:41:35;26.90;99.90
12588;DHT22;6359;51.450;7.346;2022-09-09T08:44:07;27.60;99.90
12588;DHT22;6359;51.450;7.346;2022-09-09T08:46:44;27.50;99.90
12588;DHT22;6359;51.450;7.346;2022-09-09T08:49:24;27.20;99.90
12588;DHT22;6359;51.450;7.346;2022-09-09T08:51:57;26.40;99.90
12588;DHT22;6359;51.450;7.346;2022-09-09T08:54:28;26.10;99.90
12588;DHT22;6359;51.450;7.346;2022-09-09T08:57:00;26.20;99.90
12588;DHT22;6359;51.450;7.346;2022-09-09T08:59:26;26.40;99.90
12588;DHT22;6359;51.450;7.346;2022-09-09T09:02:01;27.20;99.90
12588;DHT22;6359;51.450;7.346;2022-09-09T09:04:41;27.70;99.90
12588;DHT22;6359;51.450;7.346;2022-09-09T09:07:19;27.60;99.90
12588;DHT22;6359;51.450;7.346;2022-09-09T09:09:55;27.40;99.90
12588;DHT22;6359;51.450;7.346;2022-09-09T09:12:28;26.90;99.90
12588;DHT22;6359;51.450;7.346;2022-09-09T09:14:56;27.10;99.90
12588;DHT22;6359;51.450;7.346;2022-09-09T09:17:26;27.70;99.90
12588;DHT22;6359;51.450;7.346;2022-09-09T09:19:57;28.50;99.90
12588;DHT22;6359;51.450;7.346;2022-09-09T09:22:32;28.50;99.90
12588;DHT22;6359;51.450;7.346;2022-09-09T09:25:08;27.70;99.90
12588;DHT22;6359;51.450;7.346;2022-09-09T09:27:42;27.20;99.90
12588;DHT22;6359;51.450;7.346;2022-09-09T09:30:15;26.30;99.90
12588;DHT22;6359;51.450;7.346;2022-09-09T09:32:51;25.80;99.90
12588;DHT22;6359;51.450;7.346;2022-09-09T09:35:19;24.80;99.90
12588;DHT22;6359;51.450;7.346;2022-09-09T09:37:46;23.90;99.90
12588;DHT22;6359;51.450;7.346;2022-09-09T09:40:16;23.30;99.90
12588;DHT22;6359;51.450;7.346;2022-09-09T09:42:53;22.80;99.90
12588;DHT22;6359;51.450;7.346;2022-09-09T09:45:27;22.70;99.90
12588;DHT22;6359;51.450;7.346;2022-09-09T09:47:59;22.70;99.90
12588;DHT22;6359;51.450;7.346;2022-09-09T09:50:27;22.60;99.90
12588;DHT22;6359;51.450;7.346;2022-09-09T09:52:56;22.60;99.90
12588;DHT22;6359;51.450;7.346;2022-09-09T09:55:24;23.40;99.90
12588;DHT22;6359;51.450;7.346;2022-09-09T09:57:54;23.50;99.90
12588;DHT22;6359;51.450;7.346;2022-09-09T10:00:26;22.90;99.90
12588;DHT22;6359;51.450;7.346;2022-09-09T10:02:53;22.30;99.90
12588;DHT22;6359;51.450;7.346;2022-09-09T10:05:23;21.80;99.90
12588;DHT22;6359;51.450;7.346;2022-09-09T10:08:04;21.60;99.90
12588;DHT22;6359;51.450;7.346;2022-09-09T10:10:46;21.40;99.90
12588;DHT22;6359;51.450;7.346;2022-09-09T10:13:20;21.50;99.90
12588;DHT22;6359;51.450;7.346;2022-09-09T10:16:02;22.80;99.90
12588;DHT22;6359;51.450;7.346;2022-09-09T10:18:47;24.80;99.90
12588;DHT22;6359;51.450;7.346;2022-09-09T10:21:24;25.50;99.90
12588;DHT22;6359;51.450;7.346;2022-09-09T10:24:22;25.40;99.90
12588;DHT22;6359;51.450;7.346;2022-09-09T10:26:58;25.00;99.90
12588;DHT22;6359;51.450;7.346;2022-09-09T10:29:52;24.60;99.90
12588;DHT22;6359;51.450;7.346;2022-09-09T10:32:41;24.50;99.90
12588;DHT22;6359;51.450;7.346;2022-09-09T10:35:12;25.00;99.90
12588;DHT22;6359;51.450;7.346;2022-09-09T10:37:50;25.40;99.90
12588;DHT22;6359;51.450;7.346;2022-09-09T10:40:26;25.60;99.90
12588;DHT22;6359;51.450;7.346;2022-09-09T10:43:02;26.00;99.90
12588;DHT22;6359;51.450;7.346;2022-09-09T10:45:37;26.10;99.90
12588;DHT22;6359;51.450;7.346;2022-09-09T10:48:25;26.60;99.90
12588;DHT22;6359;51.450;7.346;2022-09-09T10:51:06;26.90;99.90
12588;DHT22;6359;51.450;7.346;2022-09-09T10:53:48;26.50;99.90
12588;DHT22;6359;51.450;7.346;2022-09-09T10:56:20;25.50;99.90
12588;DHT22;6359;51.450;7.346;2022-09-09T10:58:51;24.40;99.90
12588;DHT22;6359;51.450;7.346;2022-09-09T11:01:24;24.10;99.90
12588;DHT22;6359;51.450;7.346;2022-09-09T11:03:55;24.60;99.90
12588;DHT22;6359;51.450;7.346;2022-09-09T11:06:28;25.20;99.90
12588;DHT22;6359;51.450;7.346;2022-09-09T11:08:57;25.80;99.90
12588;DHT22;6359;51.450;7.346;2022-09-09T11:11:30;25.50;99.90
12588;DHT22;6359;51.450;7.346;2022-09-09T11:14:02;25.50;99.90
12588;DHT22;6359;51.450;7.346;2022-09-09T11:16:36;25.40;99.90
12588;DHT22;6359;51.450;7.346;2022-09-09T11:19:14;24.90;99.90
12588;DHT22;6359;51.450;7.346;2022-09-09T11:21:46;24.50;99.90
12588;DHT22;6359;51.450;7.346;2022-09-09T11:24:18;24.50;99.90
12588;DHT22;6359;51.450;7.346;2022-09-09T11:26:51;23.90;99.90
12588;DHT22;6359;51.450;7.346;2022-09-09T11:29:41;23.70;99.90
12588;DHT22;6359;51.450;7.346;2022-09-09T11:32:25;23.50;99.90
12588;DHT22;6359;51.450;7.346;2022-09-09T11:35:03;23.40;99.90
12588;DHT22;6359;51.450;7.346;2022-09-09T11:40:32;23.40;99.90
12588;DHT22;6359;51.450;7.346;2022-09-09T11:43:02;23.50;99.90
12588;DHT22;6359;51.450;7.346;2022-09-09T11:45:32;23.60;99.90
12588;DHT22;6359;51.450;7.346;2022-09-09T11:48:04;23.70;99.90
12588;DHT22;6359;51.450;7.346;2022-09-09T11:50:34;23.50;99.90
12588;DHT22;6359;51.450;7.346;2022-09-09T11:53:18;23.40;99.90
12588;DHT22;6359;51.450;7.346;2022-09-09T11:55:48;23.40;99.90
12588;DHT22;6359;51.450;7.346;2022-09-09T11:58:26;23.40;99.90
12588;DHT22;6359;51.450;7.346;2022-09-09T12:00:54;22.80;99.90
12588;DHT22;6359;51.450;7.346;2022-09-09T12:03:44;22.40;99.90
12588;DHT22;6359;51.450;7.346;2022-09-09T12:06:15;22.20;99.90
12588;DHT22;6359;51.450;7.346;2022-09-09T12:08:45;21.90;99.90
12588;DHT22;6359;51.450;7.346;2022-09-09T12:11:24;21.80;99.90
12588;DHT22;6359;51.450;7.346;2022-09-09T12:13:53;21.50;99.90
12588;DHT22;6359;51.450;7.346;2022-09-09T12:16:32;21.40;99.90
12588;DHT22;6359;51.450;7.346;2022-09-09T12:19:14;21.20;99.90
12588;DHT22;6359;51.450;7.346;2022-09-09T12:21:48;21.00;99.90
12588;DHT22;6359;51.450;7.346;2022-09-09T12:24:22;20.60;99.90
12588;DHT22;6359;51.450;7.346;2022-09-09T12:26:56;20.30;99.90
12588;DHT22;6359;51.450;7.346;2022-09-09T12:29:28;19.80;99.90
12588;DHT22;6359;51.450;7.346;2022-09-09T12:32:01;19.40;99.90
12588;DHT22;6359;51.450;7.346;2022-09-09T12:34:38;19.00;99.90
12588;DHT22;6359;51.450;7.346;2022-09-09T12:37:14;18.60;99.90
12588;DHT22;6359;51.450;7.346;2022-09-09T12:39:47;18.30;99.90
12588;DHT22;6359;51.450;7.346;2022-09-09T12:42:18;18.50;99.90
12588;DHT22;6359;51.450;7.346;2022-09-09T12:44:55;18.90;99.90
12588;DHT22;6359;51.450;7.346;2022-09-09T12:47:26;19.50;99.90
12588;DHT22;6359;51.450;7.346;2022-09-09T12:49:57;19.90;99.90
12588;DHT22;6359;51.450;7.346;2022-09-09T12:52:27;20.00;99.90
12588;DHT22;6359;51.450;7.346;2022-09-09T12:54:57;20.00;99.90
12588;DHT22;6359;51.450;7.346;2022-09-09T12:57:26;20.00;99.90
12588;DHT22;6359;51.450;7.346;2022-09-09T13:00:05;20.10;99.90
12588;DHT22;6359;51.450;7.346;2022-09-09T13:02:32;19.80;99.90
12588;DHT22;6359;51.450;7.346;2022-09-09T13:05:15;19.70;99.90
12588;DHT22;6359;51.450;7.346;2022-09-09T13:07:43;19.50;99.90
12588;DHT22;6359;51.450;7.346;2022-09-09T13:10:11;19.40;99.90
12588;DHT22;6359;51.450;7.346;2022-09-09T13:12:39;19.30;99.90
12588;DHT22;6359;51.450;7.346;2022-09-09T13:15:14;19.30;99.90
12588;DHT22;6359;51.450;7.346;2022-09-09T13:17:50;19.40;99.90
12588;DHT22;6359;51.450;7.346;2022-09-09T13:20:20;20.00;99.90
12588;DHT22;6359;51.450;7.346;2022-09-09T13:22:48;20.90;99.90
12588;DHT22;6359;51.450;7.346;2022-09-09T13:25:21;21.30;99.90
12588;DHT22;6359;51.450;7.346;2022-09-09T13:28:01;21.50;99.90
12588;DHT22;6359;51.450;7.346;2022-09-09T13:30:30;21.50;99.90
12588;DHT22;6359;51.450;7.346;2022-09-09T13:33:04;21.40;99.90
12588;DHT22;6359;51.450;7.346;2022-09-09T13:35:35;21.30;99.90
12588;DHT22;6359;51.450;7.346;2022-09-09T13:38:13;21.50;99.90
12588;DHT22;6359;51.450;7.346;2022-09-09T13:40:42;21.40;99.90
12588;DHT22;6359;51.450;7.346;2022-09-09T13:43:21;21.20;99.90
12588;DHT22;6359;51.450;7.346;2022-09-09T13:45:53;20.90;99.90
12588;DHT22;6359;51.450;7.346;2022-09-09T13:48:21;20.70;99.90
12588;DHT22;6359;51.450;7.346;2022-09-09T13:50:56;20.70;99.90
12588;DHT22;6359;51.450;7.346;2022-09-09T13:53:23;20.50;99.90
12588;DHT22;6359;51.450;7.346;2022-09-09T13:55:50;20.10;99.90
12588;DHT22;6359;51.450;7.346;2022-09-09T13:58:18;19.20;99.90
12588;DHT22;6359;51.450;7.346;2022-09-09T14:00:45;18.50;99.90
12588;DHT22;6359;51.450;7.346;2022-09-09T14:03:12;18.20;99.90
12588;DHT22;6359;51.450;7.346;2022-09-09T14:05:40;17.80;99.90
12588;DHT22;6359;51.450;7.346;2022-09-09T14:08:15;17.50;99.90
12588;DHT22;6359;51.450;7.346;2022-09-09T14:10:42;17.50;99.90
12588;DHT22;6359;51.450;7.346;2022-09-09T14:13:09;17.40;99.90
12588;DHT22;6359;51.450;7.346;2022-09-09T14:15:37;17.50;99.90
12588;DHT22;6359;51.450;7.346;2022-09-09T14:18:04;17.50;99.90
12588;DHT22;6359;51.450;7.346;2022-09-09T14:20:31;17.90;99.90
12588;DHT22;6359;51.450;7.346;2022-09-09T14:22:58;18.20;99.90
12588;DHT22;6359;51.450;7.346;2022-09-09T14:25:26;18.50;99.90
12588;DHT22;6359;51.450;7.346;2022-09-09T14:27:54;19.00;99.90
12588;DHT22;6359;51.450;7.346;2022-09-09T14:30:21;19.40;99.90
12588;DHT22;6359;51.450;7.346;2022-09-09T14:32:48;20.00;99.90
12588;DHT22;6359;51.450;7.346;2022-09-09T14:35:15;20.30;99.90
12588;DHT22;6359;51.450;7.346;2022-09-09T14:37:43;20.50;99.90
12588;DHT22;6359;51.450;7.346;2022-09-09T14:40:10;20.40;99.90
12588;DHT22;6359;51.450;7.346;2022-09-09T14:42:39;20.40;99.90
12588;DHT22;6359;51.450;7.346;2022-09-09T14:45:07;20.40;99.90
12588;DHT22;6359;51.450;7.346;2022-09-09T14:47:35;20.30;99.90
12588;DHT22;6359;51.450;7.346;2022-09-09T14:50:02;20.20;99.90
12588;DHT22;6359;51.450;7.346;2022-09-09T14:52:30;19.90;99.90
12588;DHT22;6359;51.450;7.346;2022-09-09T14:54:57;19.70;99.90
12588;DHT22;6359;51.450;7.346;2022-09-09T14:57:24;19.60;99.90
12588;DHT22;6359;51.450;7.346;2022-09-09T14:59:52;19.40;99.90
12588;DHT22;6359;51.450;7.346;2022-09-09T15:02:19;19.20;99.90
12588;DHT22;6359;51.450;7.346;2022-09-09T15:04:46;19.00;99.90
12588;DHT22;6359;51.450;7.346;2022-09-09T15:07:13;18.90;99.90
12588;DHT22;6359;51.450;7.346;2022-09-09T15:09:39;19.10;99.90
12588;DHT22;6359;51.450;7.346;2022-09-09T15:12:06;19.30;99.90
12588;DHT22;6359;51.450;7.346;2022-09-09T15:14:33;19.60;99.90
12588;DHT22;6359;51.450;7.346;2022-09-09T15:17:02;19.80;99.90
12588;DHT22;6359;51.450;7.346;2022-09-09T15:19:28;19.90;99.90
12588;DHT22;6359;51.450;7.346;2022-09-09T15:21:55;19.90;99.90
12588;DHT22;6359;51.450;7.346;2022-09-09T15:24:22;19.90;99.90
12588;DHT22;6359;51.450;7.346;2022-09-09T15:26:49;19.70;99.90
12588;DHT22;6359;51.450;7.346;2022-09-09T15:29:16;19.40;99.90
12588;DHT22;6359;51.450;7.346;2022-09-09T15:31:44;19.10;99.90
12588;DHT22;6359;51.450;7.346;2022-09-09T15:34:13;18.70;99.90
12588;DHT22;6359;51.450;7.346;2022-09-09T15:36:41;18.20;99.90
12588;DHT22;6359;51.450;7.346;2022-09-09T15:39:10;17.40;99.90
12588;DHT22;6359;51.450;7.346;2022-09-09T15:41:38;16.70;99.90
12588;DHT22;6359;51.450;7.346;2022-09-09T15:44:05;16.00;99.90
12588;DHT22;6359;51.450;7.346;2022-09-09T15:46:34;15.50;99.90
12588;DHT22;6359;51.450;7.346;2022-09-09T15:49:04;15.20;99.90
12588;DHT22;6359;51.450;7.346;2022-09-09T15:51:33;15.10;99.90
12588;DHT22;6359;51.450;7.346;2022-09-09T15:54:00;15.00;99.90
12588;DHT22;6359;51.450;7.346;2022-09-09T15:56:28;15.00;99.90
12588;DHT22;6359;51.450;7.346;2022-09-09T15:58:58;15.00;99.90
12588;DHT22;6359;51.450;7.346;2022-09-09T16:01:26;15.00;99.90
12588;DHT22;6359;51.450;7.346;2022-09-09T16:03:54;15.00;99.90
12588;DHT22;6359;51.450;7.346;2022-09-09T16:06:22;15.00;99.90
12588;DHT22;6359;51.450;7.346;2022-09-09T16:08:52;15.00;99.90
12588;DHT22;6359;51.450;7.346;2022-09-09T16:11:21;14.90;99.90